首页
METAR-TAF:

METAR-TAF

机场 :

卡斯凯什, 葡萄牙

纬度: 38-43-32N, 经度: 009-21-19W, 海拔: 99米

当前天气观测

该预报发布于8小时和42分钟前的20:30 UTC
风速7节,风向北转东北
温度 10°C
湿度 57%
气压 1015 hPa
能见度10公里或以上
少量云层高于1600英尺

METAR: LPCS 212030Z 03007KT 9999 FEW016 10/02 Q1015

时间: 05:12 (05:12 UTC)

预报

该预报发布于12小时和4分钟前的17:08 UTC
预报有效从21日的 17点(UTC)到 21日的 24点(UTC)
风速8节,风向东北
能见度10公里或以上
1500米以下无云,无积雨云
几率 30% :
短暂存在
从 21日的 17点(UTC)到 21日的 21点(UTC)
风速13节,风向
成为
从 21日的 21点(UTC)到 21日的 23点(UTC)
风速10节,风向北转东北

TAF: LPCS 211708Z 2117/2124 05008KT CAVOK PROB30 TEMPO 2117/2121 35013KT BECMG 2121/2123 02010KT

超过4000个机场的气象观测和天气预报(METAR&TAF报告)。

可查询的气象台以黄色和红色小点在地图上表示。

将鼠标移到小点上方,可查看气象台名称。

然后点击查看天气观测和预报。

如需切换地图:点击带黑十字的绿色按钮放大地图;点击带横线的绿色按钮缩小地图;或者点击绿色箭头查看邻近地区的地图。


METAR-TAF: